sensor_id;sensor_type;location;lat;lon;timestamp;pressure;altitude;pressure_sealevel;temperature;humidity
71107;BME280;58763;47.982;11.516;2024-03-02T00:00:10;93116.63;;;5.79;97.47
71107;BME280;58763;47.982;11.516;2024-03-02T00:02:47;93105.06;;;5.78;97.59
71107;BME280;58763;47.982;11.516;2024-03-02T00:05:18;93108.56;;;5.79;97.76
71107;BME280;58763;47.982;11.516;2024-03-02T00:07:44;93108.03;;;5.77;96.73
71107;BME280;58763;47.982;11.516;2024-03-02T00:10:14;93105.88;;;5.79;97.01
71107;BME280;58763;47.982;11.516;2024-03-02T00:12:42;93101.91;;;5.71;97.27
71107;BME280;58763;47.982;11.516;2024-03-02T00:15:40;93102.19;;;5.70;97.32
71107;BME280;58763;47.982;11.516;2024-03-02T00:18:11;93096.13;;;5.59;97.29
71107;BME280;58763;47.982;11.516;2024-03-02T00:20:38;93095.31;;;5.58;97.87
71107;BME280;58763;47.982;11.516;2024-03-02T00:23:09;93097.56;;;5.46;97.87
71107;BME280;58763;47.982;11.516;2024-03-02T00:26:02;93100.84;;;5.38;98.19
71107;BME280;58763;47.982;11.516;2024-03-02T00:28:33;93089.91;;;5.30;99.15
71107;BME280;58763;47.982;11.516;2024-03-02T00:31:04;93089.16;;;5.24;99.63
71107;BME280;58763;47.982;11.516;2024-03-02T00:33:33;93083.66;;;5.39;98.61
71107;BME280;58763;47.982;11.516;2024-03-02T00:35:59;93080.81;;;5.26;98.98
71107;BME280;58763;47.982;11.516;2024-03-02T00:38:27;93086.28;;;5.16;99.10
71107;BME280;58763;47.982;11.516;2024-03-02T00:40:53;93077.91;;;5.22;99.36
71107;BME280;58763;47.982;11.516;2024-03-02T00:45:54;93074.66;;;5.25;99.84
71107;BME280;58763;47.982;11.516;2024-03-02T00:48:19;93071.91;;;5.35;99.34
71107;BME280;58763;47.982;11.516;2024-03-02T00:50:45;93073.00;;;5.34;98.89
71107;BME280;58763;47.982;11.516;2024-03-02T00:53:12;93074.84;;;5.39;98.54
71107;BME280;58763;47.982;11.516;2024-03-02T00:55:38;93070.06;;;5.31;98.83
71107;BME280;58763;47.982;11.516;2024-03-02T00:58:05;93070.53;;;5.43;98.66
71107;BME280;58763;47.982;11.516;2024-03-02T01:00:30;93073.06;;;5.58;97.35
71107;BME280;58763;47.982;11.516;2024-03-02T01:02:56;93072.56;;;5.51;97.20
71107;BME280;58763;47.982;11.516;2024-03-02T01:05:21;93069.31;;;5.59;96.72
71107;BME280;58763;47.982;11.516;2024-03-02T01:07:47;93068.47;;;5.64;96.14
71107;BME280;58763;47.982;11.516;2024-03-02T01:10:12;93067.75;;;5.53;96.84
71107;BME280;58763;47.982;11.516;2024-03-02T01:12:38;93070.00;;;5.41;97.23
71107;BME280;58763;47.982;11.516;2024-03-02T01:15:04;93067.84;;;5.43;97.32
71107;BME280;58763;47.982;11.516;2024-03-02T01:17:33;93067.53;;;5.44;96.76
71107;BME280;58763;47.982;11.516;2024-03-02T01:19:59;93072.09;;;5.44;97.29
71107;BME280;58763;47.982;11.516;2024-03-02T01:22:24;93063.31;;;5.38;97.05
71107;BME280;58763;47.982;11.516;2024-03-02T01:24:51;93057.47;;;5.31;97.80
71107;BME280;58763;47.982;11.516;2024-03-02T01:27:17;93067.66;;;5.34;97.85
71107;BME280;58763;47.982;11.516;2024-03-02T01:29:42;93070.34;;;5.34;98.12
71107;BME280;58763;47.982;11.516;2024-03-02T01:32:08;93067.66;;;5.34;98.31
71107;BME280;58763;47.982;11.516;2024-03-02T01:34:33;93066.81;;;5.39;98.11
71107;BME280;58763;47.982;11.516;2024-03-02T01:36:59;93065.66;;;5.45;97.86
71107;BME280;58763;47.982;11.516;2024-03-02T01:39:24;93069.38;;;5.49;96.79
71107;BME280;58763;47.982;11.516;2024-03-02T01:41:50;93062.50;;;5.38;96.50
71107;BME280;58763;47.982;11.516;2024-03-02T01:44:15;93056.66;;;5.31;96.78
71107;BME280;58763;47.982;11.516;2024-03-02T01:46:41;93060.72;;;5.28;96.76
71107;BME280;58763;47.982;11.516;2024-03-02T01:49:06;93063.06;;;5.35;96.27
71107;BME280;58763;47.982;11.516;2024-03-02T01:51:32;93054.84;;;5.26;96.05
71107;BME280;58763;47.982;11.516;2024-03-02T01:53:58;93058.03;;;5.28;96.41
71107;BME280;58763;47.982;11.516;2024-03-02T01:56:23;93056.13;;;5.34;96.09
71107;BME280;58763;47.982;11.516;2024-03-02T01:58:49;93052.00;;;5.41;95.74
71107;BME280;58763;47.982;11.516;2024-03-02T02:01:15;93046.38;;;5.43;95.59
71107;BME280;58763;47.982;11.516;2024-03-02T02:03:43;93043.72;;;5.43;95.53
71107;BME280;58763;47.982;11.516;2024-03-02T02:06:09;93046.44;;;5.38;95.50
71107;BME280;58763;47.982;11.516;2024-03-02T02:08:37;93044.81;;;5.37;95.71
71107;BME280;58763;47.982;11.516;2024-03-02T02:11:03;93037.72;;;5.51;95.00
71107;BME280;58763;47.982;11.516;2024-03-02T02:13:29;93037.78;;;5.46;94.87
71107;BME280;58763;47.982;11.516;2024-03-02T02:15:55;93028.19;;;5.40;95.26
71107;BME280;58763;47.982;11.516;2024-03-02T02:18:20;93038.59;;;5.41;95.59
71107;BME280;58763;47.982;11.516;2024-03-02T02:20:46;93033.53;;;5.40;95.64
71107;BME280;58763;47.982;11.516;2024-03-02T02:23:11;93033.00;;;5.43;95.15
71107;BME280;58763;47.982;11.516;2024-03-02T02:25:39;93033.78;;;5.43;95.20
71107;BME280;58763;47.982;11.516;2024-03-02T02:28:05;93031.41;;;5.37;95.31
71107;BME280;58763;47.982;11.516;2024-03-02T02:30:32;93021.31;;;5.29;95.69
71107;BME280;58763;47.982;11.516;2024-03-02T02:32:58;93026.06;;;5.37;95.90
71107;BME280;58763;47.982;11.516;2024-03-02T02:35:24;93024.47;;;5.36;95.42
71107;BME280;58763;47.982;11.516;2024-03-02T02:37:50;93015.34;;;5.37;95.73
71107;BME280;58763;47.982;11.516;2024-03-02T02:40:16;93023.38;;;5.37;95.90
71107;BME280;58763;47.982;11.516;2024-03-02T02:42:44;93015.44;;;5.27;96.68
71107;BME280;58763;47.982;11.516;2024-03-02T02:45:10;93023.22;;;5.23;97.15
71107;BME280;58763;47.982;11.516;2024-03-02T02:47:39;93019.56;;;5.14;97.59
71107;BME280;58763;47.982;11.516;2024-03-02T02:50:07;93016.91;;;5.09;98.87
71107;BME280;58763;47.982;11.516;2024-03-02T02:52:36;93016.44;;;5.02;99.00
71107;BME280;58763;47.982;11.516;2024-03-02T02:55:04;93014.03;;;5.01;99.32
71107;BME280;58763;47.982;11.516;2024-03-02T02:57:31;93011.94;;;4.93;99.79
71107;BME280;58763;47.982;11.516;2024-03-02T03:00:10;93008.91;;;5.04;99.83
71107;BME280;58763;47.982;11.516;2024-03-02T03:02:43;93012.22;;;4.91;99.97
71107;BME280;58763;47.982;11.516;2024-03-02T03:05:11;93020.75;;;4.98;100.00
71107;BME280;58763;47.982;11.516;2024-03-02T03:07:37;93021.53;;;5.04;100.00
71107;BME280;58763;47.982;11.516;2024-03-02T03:10:04;93018.88;;;4.99;100.00
71107;BME280;58763;47.982;11.516;2024-03-02T03:12:33;93029.47;;;5.14;100.00
71107;BME280;58763;47.982;11.516;2024-03-02T03:14:59;93030.28;;;5.14;99.59
71107;BME280;58763;47.982;11.516;2024-03-02T03:17:26;93030.22;;;5.19;99.46
71107;BME280;58763;47.982;11.516;2024-03-02T03:19:52;93032.22;;;5.09;99.95
71107;BME280;58763;47.982;11.516;2024-03-02T03:22:18;93033.25;;;5.13;100.00
71107;BME280;58763;47.982;11.516;2024-03-02T03:24:44;93038.28;;;5.19;99.87
71107;BME280;58763;47.982;11.516;2024-03-02T03:27:10;93040.13;;;5.24;99.86
71107;BME280;58763;47.982;11.516;2024-03-02T03:29:37;93040.06;;;5.29;99.16
71107;BME280;58763;47.982;11.516;2024-03-02T03:32:03;93049.69;;;5.30;98.87
71107;BME280;58763;47.982;11.516;2024-03-02T03:34:33;93045.44;;;5.29;98.79
71107;BME280;58763;47.982;11.516;2024-03-02T03:36:59;93050.78;;;5.29;98.88
71107;BME280;58763;47.982;11.516;2024-03-02T03:39:25;93046.50;;;5.28;98.88
71107;BME280;58763;47.982;11.516;2024-03-02T03:41:50;93053.78;;;5.27;99.00
71107;BME280;58763;47.982;11.516;2024-03-02T03:44:16;93054.00;;;5.31;98.61
71107;BME280;58763;47.982;11.516;2024-03-02T03:46:42;93054.00;;;5.31;98.85
71107;BME280;58763;47.982;11.516;2024-03-02T03:49:07;93055.03;;;5.35;98.78
71107;BME280;58763;47.982;11.516;2024-03-02T03:51:33;93055.53;;;5.37;98.22
71107;BME280;58763;47.982;11.516;2024-03-02T03:53:59;93053.50;;;5.24;98.00
71107;BME280;58763;47.982;11.516;2024-03-02T03:56:25;93058.88;;;5.24;98.94
71107;BME280;58763;47.982;11.516;2024-03-02T03:58:50;93054.03;;;5.26;98.90
71107;BME280;58763;47.982;11.516;2024-03-02T04:01:16;93056.19;;;5.24;99.19
71107;BME280;58763;47.982;11.516;2024-03-02T04:03:41;93053.00;;;5.22;99.09
71107;BME280;58763;47.982;11.516;2024-03-02T04:06:07;93054.81;;;5.31;99.07
71107;BME280;58763;47.982;11.516;2024-03-02T04:08:32;93057.84;;;5.48;97.85
71107;BME280;58763;47.982;11.516;2024-03-02T04:10:58;93056.56;;;5.46;97.63
71107;BME280;58763;47.982;11.516;2024-03-02T04:13:23;93056.34;;;5.37;98.24
71107;BME280;58763;47.982;11.516;2024-03-02T04:15:49;93055.53;;;5.37;98.38
71107;BME280;58763;47.982;11.516;2024-03-02T04:18:14;93055.00;;;5.40;98.04
71107;BME280;58763;47.982;11.516;2024-03-02T04:20:40;93060.34;;;5.40;97.84
71107;BME280;58763;47.982;11.516;2024-03-02T04:23:05;93060.91;;;5.37;98.16
71107;BME280;58763;47.982;11.516;2024-03-02T04:25:31;93061.66;;;5.42;97.64
71107;BME280;58763;47.982;11.516;2024-03-02T04:27:56;93065.16;;;5.43;97.65
71107;BME280;58763;47.982;11.516;2024-03-02T04:30:22;93056.81;;;5.44;97.97
71107;BME280;58763;47.982;11.516;2024-03-02T04:32:47;93065.16;;;5.43;98.03
71107;BME280;58763;47.982;11.516;2024-03-02T04:35:14;93068.91;;;5.42;97.72
71107;BME280;58763;47.982;11.516;2024-03-02T04:37:40;93075.88;;;5.43;97.93
71107;BME280;58763;47.982;11.516;2024-03-02T04:40:06;93082.03;;;5.43;97.54
71107;BME280;58763;47.982;11.516;2024-03-02T04:42:35;93083.25;;;5.56;96.66
71107;BME280;58763;47.982;11.516;2024-03-02T04:45:01;93085.75;;;5.47;96.67
71107;BME280;58763;47.982;11.516;2024-03-02T04:47:27;93088.28;;;5.63;96.27
71107;BME280;58763;47.982;11.516;2024-03-02T04:49:53;93088.13;;;5.54;95.89
71107;BME280;58763;47.982;11.516;2024-03-02T04:52:19;93094.03;;;5.51;96.61
71107;BME280;58763;47.982;11.516;2024-03-02T04:54:44;93094.28;;;5.54;95.88
71107;BME280;58763;47.982;11.516;2024-03-02T04:57:28;93098.13;;;5.43;96.76
71107;BME280;58763;47.982;11.516;2024-03-02T04:59:54;93094.59;;;5.48;96.86
71107;BME280;58763;47.982;11.516;2024-03-02T05:02:19;93105.56;;;5.51;96.68
71107;BME280;58763;47.982;11.516;2024-03-02T05:04:45;93109.38;;;5.45;96.67
71107;BME280;58763;47.982;11.516;2024-03-02T05:07:11;93108.00;;;5.48;96.61
71107;BME280;58763;47.982;11.516;2024-03-02T05:09:37;93111.25;;;5.45;96.85
71107;BME280;58763;47.982;11.516;2024-03-02T05:12:02;93112.59;;;5.42;96.70
71107;BME280;58763;47.982;11.516;2024-03-02T05:14:47;93108.84;;;5.43;96.84
71107;BME280;58763;47.982;11.516;2024-03-02T05:17:12;93104.50;;;5.52;96.02
71107;BME280;58763;47.982;11.516;2024-03-02T05:19:38;93111.72;;;5.52;96.05
71107;BME280;58763;47.982;11.516;2024-03-02T05:22:04;93117.13;;;5.47;95.88
71107;BME280;58763;47.982;11.516;2024-03-02T05:24:33;93120.94;;;5.41;97.09
71107;BME280;58763;47.982;11.516;2024-03-02T05:26:58;93116.41;;;5.36;96.94
71107;BME280;58763;47.982;11.516;2024-03-02T05:29:23;93108.13;;;5.33;97.24
71107;BME280;58763;47.982;11.516;2024-03-02T05:31:49;93111.63;;;5.28;97.54
71107;BME280;58763;47.982;11.516;2024-03-02T05:34:14;93114.13;;;5.20;97.89
71107;BME280;58763;47.982;11.516;2024-03-02T05:36:41;93106.59;;;5.22;97.87
71107;BME280;58763;47.982;11.516;2024-03-02T05:39:07;93099.88;;;5.24;98.30
71107;BME280;58763;47.982;11.516;2024-03-02T05:41:35;93106.47;;;5.37;97.85
71107;BME280;58763;47.982;11.516;2024-03-02T05:44:00;93110.28;;;5.31;97.83
71107;BME280;58763;47.982;11.516;2024-03-02T05:46:27;93100.41;;;5.26;98.08
71107;BME280;58763;47.982;11.516;2024-03-02T05:48:53;93097.75;;;5.21;98.95
71107;BME280;58763;47.982;11.516;2024-03-02T05:51:18;93100.75;;;5.15;98.78
71107;BME280;58763;47.982;11.516;2024-03-02T05:53:44;93099.63;;;5.21;99.56
71107;BME280;58763;47.982;11.516;2024-03-02T05:56:09;93103.94;;;5.17;98.92
71107;BME280;58763;47.982;11.516;2024-03-02T05:58:35;93111.19;;;5.11;99.51
71107;BME280;58763;47.982;11.516;2024-03-02T06:01:19;93104.19;;;5.20;98.88
71107;BME280;58763;47.982;11.516;2024-03-02T06:03:45;93108.53;;;5.11;99.12
71107;BME280;58763;47.982;11.516;2024-03-02T06:06:11;93109.63;;;5.10;99.66
71107;BME280;58763;47.982;11.516;2024-03-02T06:08:37;93107.41;;;5.22;98.61
71107;BME280;58763;47.982;11.516;2024-03-02T06:11:03;93111.44;;;5.20;99.06
71107;BME280;58763;47.982;11.516;2024-03-02T06:13:29;93115.66;;;5.26;98.97
71107;BME280;58763;47.982;11.516;2024-03-02T06:15:54;93127.69;;;5.33;97.88
71107;BME280;58763;47.982;11.516;2024-03-02T06:18:20;93119.97;;;5.27;98.01
71107;BME280;58763;47.982;11.516;2024-03-02T06:20:45;93123.38;;;5.32;97.62
71107;BME280;58763;47.982;11.516;2024-03-02T06:23:11;93126.03;;;5.37;97.34
71107;BME280;58763;47.982;11.516;2024-03-02T06:25:36;93122.66;;;5.22;96.52
71107;BME280;58763;47.982;11.516;2024-03-02T06:28:02;93124.31;;;5.18;97.87
71107;BME280;58763;47.982;11.516;2024-03-02T06:30:29;93116.03;;;5.09;97.84
71107;BME280;58763;47.982;11.516;2024-03-02T06:32:55;93122.81;;;5.02;98.87
71107;BME280;58763;47.982;11.516;2024-03-02T06:35:21;93114.28;;;4.95;99.35
71107;BME280;58763;47.982;11.516;2024-03-02T06:37:46;93115.88;;;4.90;99.62
71107;BME280;58763;47.982;11.516;2024-03-02T06:40:12;93118.31;;;4.92;99.74
71107;BME280;58763;47.982;11.516;2024-03-02T06:42:39;93119.06;;;4.98;99.21
71107;BME280;58763;47.982;11.516;2024-03-02T06:45:05;93112.69;;;4.88;99.57
71107;BME280;58763;47.982;11.516;2024-03-02T06:47:31;93111.66;;;4.84;100.00
71107;BME280;58763;47.982;11.516;2024-03-02T06:49:56;93114.53;;;4.93;99.57
71107;BME280;58763;47.982;11.516;2024-03-02T06:52:24;93116.97;;;4.95;99.74
71107;BME280;58763;47.982;11.516;2024-03-02T06:54:49;93108.94;;;4.89;99.94
71107;BME280;58763;47.982;11.516;2024-03-02T06:57:15;93102.28;;;4.82;100.00
71107;BME280;58763;47.982;11.516;2024-03-02T06:59:42;93107.13;;;4.80;100.00
71107;BME280;58763;47.982;11.516;2024-03-02T07:02:07;93111.97;;;4.78;100.00
71107;BME280;58763;47.982;11.516;2024-03-02T07:04:34;93110.88;;;4.74;100.00
71107;BME280;58763;47.982;11.516;2024-03-02T07:06:59;93115.19;;;4.70;100.00
71107;BME280;58763;47.982;11.516;2024-03-02T07:09:25;93119.19;;;4.72;100.00
71107;BME280;58763;47.982;11.516;2024-03-02T07:11:51;93117.63;;;4.66;100.00
71107;BME280;58763;47.982;11.516;2024-03-02T07:14:20;93113.34;;;4.65;100.00
71107;BME280;58763;47.982;11.516;2024-03-02T07:16:48;93121.34;;;4.70;100.00
71107;BME280;58763;47.982;11.516;2024-03-02T07:19:14;93118.13;;;4.73;100.00
71107;BME280;58763;47.982;11.516;2024-03-02T07:21:39;93120.03;;;4.68;100.00
71107;BME280;58763;47.982;11.516;2024-03-02T07:24:05;93116.53;;;4.72;100.00
71107;BME280;58763;47.982;11.516;2024-03-02T07:26:31;93114.13;;;4.76;100.00
71107;BME280;58763;47.982;11.516;2024-03-02T07:28:57;93122.94;;;4.71;100.00
71107;BME280;58763;47.982;11.516;2024-03-02T07:31:23;93121.34;;;4.70;100.00
71107;BME280;58763;47.982;11.516;2024-03-02T07:33:48;93117.13;;;4.64;100.00
71107;BME280;58763;47.982;11.516;2024-03-02T07:36:14;93112.22;;;4.76;100.00
71107;BME280;58763;47.982;11.516;2024-03-02T07:38:40;93119.41;;;4.86;100.00
71107;BME280;58763;47.982;11.516;2024-03-02T07:41:06;93125.03;;;4.84;100.00
71107;BME280;58763;47.982;11.516;2024-03-02T07:43:32;93121.50;;;4.94;100.00
71107;BME280;58763;47.982;11.516;2024-03-02T07:45:58;93129.28;;;4.90;99.85
71107;BME280;58763;47.982;11.516;2024-03-02T07:48:24;93129.41;;;4.65;100.00
71107;BME280;58763;47.982;11.516;2024-03-02T07:50:50;93130.53;;;4.59;100.00
71107;BME280;58763;47.982;11.516;2024-03-02T07:53:16;93135.25;;;4.72;100.00
71107;BME280;58763;47.982;11.516;2024-03-02T07:55:42;93132.88;;;4.71;100.00
71107;BME280;58763;47.982;11.516;2024-03-02T07:58:07;93134.66;;;4.85;100.00
71107;BME280;58763;47.982;11.516;2024-03-02T08:00:33;93130.59;;;4.93;100.00
71107;BME280;58763;47.982;11.516;2024-03-02T08:03:00;93130.75;;;5.12;100.00
71107;BME280;58763;47.982;11.516;2024-03-02T08:05:26;93136.66;;;5.14;100.00
71107;BME280;58763;47.982;11.516;2024-03-02T08:07:52;93131.75;;;5.26;100.00
71107;BME280;58763;47.982;11.516;2024-03-02T08:10:18;93137.09;;;5.31;100.00
71107;BME280;58763;47.982;11.516;2024-03-02T08:12:45;93132.16;;;5.48;100.00
71107;BME280;58763;47.982;11.516;2024-03-02T08:15:11;93139.56;;;5.56;100.00
71107;BME280;58763;47.982;11.516;2024-03-02T08:17:40;93134.66;;;5.68;100.00
71107;BME280;58763;47.982;11.516;2024-03-02T08:20:14;93131.94;;;5.73;100.00
71107;BME280;58763;47.982;11.516;2024-03-02T08:22:39;93135.09;;;5.80;100.00
71107;BME280;58763;47.982;11.516;2024-03-02T08:25:05;93134.50;;;5.88;100.00
71107;BME280;58763;47.982;11.516;2024-03-02T08:27:31;93135.69;;;6.06;100.00
71107;BME280;58763;47.982;11.516;2024-03-02T08:29:57;93142.28;;;6.18;100.00
71107;BME280;58763;47.982;11.516;2024-03-02T08:32:23;93137.56;;;6.34;100.00
71107;BME280;58763;47.982;11.516;2024-03-02T08:34:49;93138.31;;;6.63;100.00
71107;BME280;58763;47.982;11.516;2024-03-02T08:37:14;93141.28;;;6.85;100.00
71107;BME280;58763;47.982;11.516;2024-03-02T08:39:39;93140.81;;;7.21;99.31
71107;BME280;58763;47.982;11.516;2024-03-02T08:42:05;93133.38;;;7.50;99.15
71107;BME280;58763;47.982;11.516;2024-03-02T08:44:31;93140.19;;;7.80;96.26
71107;BME280;58763;47.982;11.516;2024-03-02T08:46:59;93138.03;;;8.14;95.21
71107;BME280;58763;47.982;11.516;2024-03-02T08:49:25;93135.81;;;8.48;92.25
71107;BME280;58763;47.982;11.516;2024-03-02T08:51:50;93135.81;;;8.75;91.68
71107;BME280;58763;47.982;11.516;2024-03-02T08:54:23;93136.41;;;9.13;86.78
71107;BME280;58763;47.982;11.516;2024-03-02T08:56:49;93141.25;;;9.38;87.10
71107;BME280;58763;47.982;11.516;2024-03-02T08:59:16;93140.00;;;9.58;84.85
71107;BME280;58763;47.982;11.516;2024-03-02T09:01:41;93137.88;;;9.68;85.42
71107;BME280;58763;47.982;11.516;2024-03-02T09:04:08;93137.28;;;9.71;83.65
71107;BME280;58763;47.982;11.516;2024-03-02T09:06:36;93141.31;;;9.83;83.53
71107;BME280;58763;47.982;11.516;2024-03-02T09:09:02;93139.38;;;9.97;83.67
71107;BME280;58763;47.982;11.516;2024-03-02T09:11:28;93134.53;;;10.07;83.73
71107;BME280;58763;47.982;11.516;2024-03-02T09:13:54;93133.19;;;10.18;82.81
71107;BME280;58763;47.982;11.516;2024-03-02T09:16:21;93137.63;;;10.14;80.31
71107;BME280;58763;47.982;11.516;2024-03-02T09:18:46;93140.34;;;10.14;81.09
71107;BME280;58763;47.982;11.516;2024-03-02T09:21:12;93143.94;;;10.10;79.80
71107;BME280;58763;47.982;11.516;2024-03-02T09:23:38;93138.59;;;10.18;79.30
71107;BME280;58763;47.982;11.516;2024-03-02T09:26:05;93138.97;;;10.25;78.67
71107;BME280;58763;47.982;11.516;2024-03-02T09:28:31;93145.19;;;10.26;78.15
71107;BME280;58763;47.982;11.516;2024-03-02T09:30:57;93142.84;;;10.33;79.56
71107;BME280;58763;47.982;11.516;2024-03-02T09:33:22;93138.25;;;10.11;82.23
71107;BME280;58763;47.982;11.516;2024-03-02T09:35:48;93135.41;;;10.16;81.86
71107;BME280;58763;47.982;11.516;2024-03-02T09:38:14;93136.50;;;10.15;82.16
71107;BME280;58763;47.982;11.516;2024-03-02T09:40:41;93134.81;;;10.19;81.83
71107;BME280;58763;47.982;11.516;2024-03-02T09:43:07;93127.91;;;10.13;81.55
71107;BME280;58763;47.982;11.516;2024-03-02T09:45:33;93138.97;;;10.03;82.06
71107;BME280;58763;47.982;11.516;2024-03-02T09:47:59;93129.84;;;9.99;82.05
71107;BME280;58763;47.982;11.516;2024-03-02T09:50:25;93133.66;;;9.76;82.01
71107;BME280;58763;47.982;11.516;2024-03-02T09:52:52;93134.13;;;9.56;83.79
71107;BME280;58763;47.982;11.516;2024-03-02T09:55:18;93135.47;;;9.45;83.85
71107;BME280;58763;47.982;11.516;2024-03-02T09:57:45;93139.19;;;9.35;84.66
71107;BME280;58763;47.982;11.516;2024-03-02T10:00:11;93131.66;;;9.46;85.64
71107;BME280;58763;47.982;11.516;2024-03-02T10:02:43;93124.53;;;9.50;84.86
71107;BME280;58763;47.982;11.516;2024-03-02T10:05:10;93122.03;;;9.53;84.66
71107;BME280;58763;47.982;11.516;2024-03-02T10:07:36;93126.84;;;9.43;85.38
71107;BME280;58763;47.982;11.516;2024-03-02T10:10:15;93130.31;;;9.57;85.16
71107;BME280;58763;47.982;11.516;2024-03-02T10:12:41;93131.06;;;9.71;84.46
71107;BME280;58763;47.982;11.516;2024-03-02T10:15:07;93125.06;;;9.52;83.64
71107;BME280;58763;47.982;11.516;2024-03-02T10:17:35;93117.34;;;9.45;83.76
71107;BME280;58763;47.982;11.516;2024-03-02T10:20:21;93123.22;;;9.61;82.22
71107;BME280;58763;47.982;11.516;2024-03-02T10:22:46;93125.88;;;9.74;82.68
71107;BME280;58763;47.982;11.516;2024-03-02T10:25:31;93125.06;;;9.74;82.92
71107;BME280;58763;47.982;11.516;2024-03-02T10:27:58;93117.34;;;9.81;81.78
71107;BME280;58763;47.982;11.516;2024-03-02T10:30:26;93115.94;;;9.84;82.22
71107;BME280;58763;47.982;11.516;2024-03-02T10:32:53;93120.41;;;9.88;80.48
71107;BME280;58763;47.982;11.516;2024-03-02T10:35:22;93106.97;;;9.97;80.01
71107;BME280;58763;47.982;11.516;2024-03-02T10:37:49;93112.19;;;10.15;80.02
71107;BME280;58763;47.982;11.516;2024-03-02T10:40:16;93104.06;;;10.37;80.66
71107;BME280;58763;47.982;11.516;2024-03-02T10:42:42;93104.53;;;10.62;79.38
71107;BME280;58763;47.982;11.516;2024-03-02T10:45:12;93100.09;;;10.74;77.81
71107;BME280;58763;47.982;11.516;2024-03-02T10:47:41;93098.69;;;10.77;75.40
71107;BME280;58763;47.982;11.516;2024-03-02T10:50:08;93094.97;;;11.03;75.98
71107;BME280;58763;47.982;11.516;2024-03-02T10:52:37;93083.25;;;11.34;76.18
71107;BME280;58763;47.982;11.516;2024-03-02T10:55:05;93080.69;;;11.37;73.70
71107;BME280;58763;47.982;11.516;2024-03-02T11:00:12;93069.13;;;11.79;72.34
71107;BME280;58763;47.982;11.516;2024-03-02T11:02:44;93072.44;;;11.76;70.26
71107;BME280;58763;47.982;11.516;2024-03-02T11:05:27;93064.16;;;11.82;71.63
71107;BME280;58763;47.982;11.516;2024-03-02T11:08:00;93056.06;;;11.90;70.93
71107;BME280;58763;47.982;11.516;2024-03-02T11:10:51;93054.44;;;12.06;69.03
71107;BME280;58763;47.982;11.516;2024-03-02T11:13:22;93054.25;;;12.20;68.80
71107;BME280;58763;47.982;11.516;2024-03-02T11:15:53;93048.63;;;12.33;68.88
71107;BME280;58763;47.982;11.516;2024-03-02T11:18:21;93046.34;;;12.44;67.50
71107;BME280;58763;47.982;11.516;2024-03-02T11:20:47;93036.00;;;12.46;67.25
71107;BME280;58763;47.982;11.516;2024-03-02T11:23:15;93039.88;;;12.66;67.91
71107;BME280;58763;47.982;11.516;2024-03-02T11:25:40;93032.78;;;12.90;67.18
71107;BME280;58763;47.982;11.516;2024-03-02T11:28:07;93027.94;;;12.96;64.98
71107;BME280;58763;47.982;11.516;2024-03-02T11:33:07;93019.94;;;13.29;65.14
71107;BME280;58763;47.982;11.516;2024-03-02T11:35:36;93015.69;;;13.40;64.04
71107;BME280;58763;47.982;11.516;2024-03-02T11:38:06;93019.22;;;13.61;63.59
71107;BME280;58763;47.982;11.516;2024-03-02T11:40:32;93003.31;;;13.71;63.85
71107;BME280;58763;47.982;11.516;2024-03-02T11:42:59;93014.50;;;13.70;62.72
71107;BME280;58763;47.982;11.516;2024-03-02T11:45:26;93007.84;;;13.79;62.92
71107;BME280;58763;47.982;11.516;2024-03-02T11:47:58;92993.75;;;13.86;61.43
71107;BME280;58763;47.982;11.516;2024-03-02T11:50:36;92999.44;;;13.93;60.87
71107;BME280;58763;47.982;11.516;2024-03-02T11:53:06;92997.19;;;13.95;61.20
71107;BME280;58763;47.982;11.516;2024-03-02T11:55:36;92984.13;;;13.88;59.79
71107;BME280;58763;47.982;11.516;2024-03-02T11:58:03;92983.25;;;13.97;60.85
71107;BME280;58763;47.982;11.516;2024-03-02T12:00:30;92981.34;;;13.97;59.22
71107;BME280;58763;47.982;11.516;2024-03-02T12:03:08;92976.50;;;14.15;59.87
71107;BME280;58763;47.982;11.516;2024-03-02T12:05:35;92974.38;;;14.20;59.77
71107;BME280;58763;47.982;11.516;2024-03-02T12:08:06;92971.88;;;14.27;60.17
71107;BME280;58763;47.982;11.516;2024-03-02T12:10:32;92970.84;;;14.20;58.67
71107;BME280;58763;47.982;11.516;2024-03-02T12:12:58;92964.25;;;14.41;60.04
71107;BME280;58763;47.982;11.516;2024-03-02T12:15:29;92962.53;;;14.61;59.67
71107;BME280;58763;47.982;11.516;2024-03-02T12:17:56;92962.88;;;14.60;59.03
71107;BME280;58763;47.982;11.516;2024-03-02T12:20:23;92957.22;;;14.65;58.02
71107;BME280;58763;47.982;11.516;2024-03-02T12:22:53;92955.63;;;14.76;57.06
71107;BME280;58763;47.982;11.516;2024-03-02T12:25:22;92950.75;;;14.57;57.53
71107;BME280;58763;47.982;11.516;2024-03-02T12:27:50;92938.41;;;14.60;57.01
71107;BME280;58763;47.982;11.516;2024-03-02T12:30:16;92939.78;;;14.53;55.48
71107;BME280;58763;47.982;11.516;2024-03-02T12:32:42;92936.94;;;14.62;56.96
71107;BME280;58763;47.982;11.516;2024-03-02T12:35:10;92919.47;;;14.75;56.52
71107;BME280;58763;47.982;11.516;2024-03-02T12:37:47;92925.38;;;14.65;55.54
71107;BME280;58763;47.982;11.516;2024-03-02T12:40:14;92915.25;;;14.66;55.20
71107;BME280;58763;47.982;11.516;2024-03-02T12:42:41;92909.94;;;14.69;56.02
71107;BME280;58763;47.982;11.516;2024-03-02T12:45:10;92901.34;;;14.67;56.98
71107;BME280;58763;47.982;11.516;2024-03-02T12:47:37;92902.00;;;14.76;56.84
71107;BME280;58763;47.982;11.516;2024-03-02T12:50:04;92906.78;;;14.67;54.93
71107;BME280;58763;47.982;11.516;2024-03-02T12:52:30;92904.72;;;14.76;56.10
71107;BME280;58763;47.982;11.516;2024-03-02T12:55:02;92900.84;;;14.77;54.87
71107;BME280;58763;47.982;11.516;2024-03-02T12:57:31;92898.53;;;14.51;54.99
71107;BME280;58763;47.982;11.516;2024-03-02T13:00:03;92887.66;;;14.51;54.88
71107;BME280;58763;47.982;11.516;2024-03-02T13:02:35;92893.63;;;14.45;55.98